• Join FlightAware (Why Join?)
  • Login
  • US Flag 
04:38AM EDT


 

Airport Tracker/Info


-or-


 

Live Flight TrackerFlight Track Log ✈ N758MT ✈ 10-Mar-2014 ✈ KDAB - KLAL

Flight Track Log - Related Links

Times and Time Zones

All times are in EDT time to prevent confusion due to time zone crossing. See the N758MT flight status page for this flight to view local times or setup timezone preferences in your user account.

Time Position Orientation Groundspeed Altitude Reporting Facility
EDT Latitude Longitude Course Direction KTS MPH feet Rate Location/Type
04:31PM 29.0500 -81.0833 221° Southwest 108 124 2,400  Level Orlando TRACON
04:32PM 29.0333 -81.1000 221° Southwest 108 124 2,500 60 Climbing Orlando TRACON
04:33PM 29.0167 -81.1167 221° Southwest 109 125 2,500 -60 Level Orlando TRACON
04:34PM 29.0000 -81.1500 240° Southwest 111 128 2,400 -60 Descending Orlando TRACON
04:35PM 28.9833 -81.1667 221° Southwest 109 125 2,400 120 Level Orlando TRACON
04:36PM 28.9500 -81.2000 221° Southwest 114 131 2,700  Climbing Orlando TRACON
04:37PM 28.9333 -81.2167 221° Southwest 124 143 2,500 -180 Descending Orlando TRACON
04:38PM 28.9000 -81.2500 221° Southwest 125 144 2,400 -120 Descending Orlando TRACON
04:39PM 28.8833 -81.2667 221° Southwest 119 137 2,300  Descending Orlando TRACON
04:40PM 28.8500 -81.3000 221° Southwest 109 125 2,400 120 Climbing Orlando TRACON
04:41PM 28.8333 -81.3167 221° Southwest 116 133 2,600  Climbing Orlando TRACON
04:42PM 28.8167 -81.3500 240° Southwest 115 132 2,500 -60 Descending Orlando TRACON
04:43PM 28.7833 -81.3667 204° Southwest 114 131 2,500  Level Orlando TRACON
04:44PM 28.7667 -81.3833 221° Southwest 113 130 2,500  Level Orlando TRACON
04:45PM 28.7333 -81.4000 204° Southwest 119 137 2,500 -60 Level Orlando TRACON
04:46PM 28.7000 -81.4333 221° Southwest 120 138 2,400 -60 Descending Orlando TRACON
04:47PM 28.6833 -81.4500 221° Southwest 117 135 2,400  Level Orlando TRACON
04:48PM 28.6500 -81.4667 204° Southwest 114 131 2,500  Climbing Orlando TRACON
04:49PM 28.6167 -81.4833 204° Southwest 119 137 2,500  Level Orlando TRACON
04:50PM 28.6000 -81.5167 240° Southwest 117 135 2,500  Level Orlando TRACON
04:51PM 28.5667 -81.5333 204° Southwest 110 127 2,500  Level Orlando TRACON
04:52PM 28.5500 -81.5500 221° Southwest 109 125 2,500 -60 Level Orlando TRACON
04:53PM 28.5167 -81.5667 204° Southwest 113 130 2,400  Descending Orlando TRACON
04:54PM 28.5000 -81.6000 240° Southwest 108 124 2,500 60 Climbing Orlando TRACON
04:55PM 28.4667 -81.6167 204° Southwest 114 131 2,600  Climbing Orlando TRACON
04:56PM 28.4500 -81.6333 221° Southwest 116 133 2,600 -60 Level Orlando TRACON
04:57PM 28.4167 -81.6667 221° Southwest 120 138 2,500 -60 Descending Orlando TRACON
04:58PM 28.3833 -81.6833 204° Southwest 119 137 2,500 -60 Level Orlando TRACON
04:59PM 28.3667 -81.7167 240° Southwest 120 138 2,400 -60 Descending Orlando TRACON
05:00PM 28.3333 -81.7333 204° Southwest 116 133 2,400  Level Orlando TRACON
05:01PM 28.3167 -81.7500 221° Southwest 115 132 2,400  Level Orlando TRACON
05:02PM 28.2833 -81.7833 221° Southwest 113 130 2,500  Climbing Orlando TRACON
05:03PM 28.2667 -81.8000 221° Southwest 113 130 2,500  Level Orlando TRACON
05:04PM 28.2333 -81.8167 204° Southwest 114 131 2,500  Level Orlando TRACON
05:05PM 28.2167 -81.8333 221° Southwest 116 133 2,500  Level Orlando TRACON
05:06PM 28.1833 -81.8667 221° Southwest 117 135 2,500  Level Orlando TRACON
05:08PM 28.1225 -81.8942 221° Southwest  Level FlightAware Approximate
05:15PM 27.9833 -82.0167 214° Southwest  Level FlightAware Approximate
05:16PM 27.9889 -82.0186 214° Southwest  Level Estimated
05:17PM 27.9833 -82.0167 214° Southwest  Level FlightAware Approximate
05:18PM 27.9889 -82.0186 214° Southwest  Level Estimated
05:19PM 27.9833 -82.0167 214° Southwest  Level FlightAware Approximate
05:20PM 27.9889 -82.0186 214° Southwest  Level Estimated
05:21PM 27.9833 -82.0167 214° Southwest  Level FlightAware Approximate
05:22PM 27.9889 -82.0186 214° Southwest  Level Estimated
05:23PM 27.9833 -82.0167 214° Southwest  Level FlightAware Approximate
05:24PM 27.9889 -82.0186 214° Southwest  Level Estimated